createdAt,value
2018-07-06T00:01:49.367Z,66.23
2018-07-06T00:04:34.885Z,66.07
2018-07-06T00:07:20.568Z,66.12
2018-07-06T00:10:06.247Z,65.96
2018-07-06T00:12:51.755Z,66.40
2018-07-06T00:15:31.965Z,67.19
2018-07-06T00:18:17.882Z,66.83
2018-07-06T00:21:03.351Z,67.14
2018-07-06T00:23:48.606Z,67.94
2018-07-06T00:26:34.036Z,67.97
2018-07-06T00:29:19.648Z,67.43
2018-07-06T00:32:05.137Z,67.46
2018-07-06T00:34:50.628Z,67.13
2018-07-06T00:37:36.343Z,67.50
2018-07-06T00:40:21.908Z,68.13
2018-07-06T00:43:07.501Z,67.50
2018-07-06T00:45:53.358Z,68.80
2018-07-06T00:48:38.870Z,68.87
2018-07-06T00:51:24.340Z,68.14
2018-07-06T00:54:09.814Z,67.84
2018-07-06T00:56:55.423Z,68.81
2018-07-06T00:59:40.921Z,68.66
2018-07-06T01:02:20.852Z,68.42
2018-07-06T01:05:06.265Z,69.45
2018-07-06T01:07:51.817Z,68.82
2018-07-06T01:10:37.284Z,69.49
2018-07-06T01:13:22.728Z,69.05
2018-07-06T01:16:08.300Z,67.83
2018-07-06T01:18:53.848Z,68.30
2018-07-06T01:21:39.364Z,69.02
2018-07-06T01:24:25.069Z,69.15
2018-07-06T01:27:10.544Z,69.15
2018-07-06T01:29:55.896Z,69.35
2018-07-06T01:32:35.587Z,69.92
2018-07-06T01:35:21.051Z,69.51
2018-07-06T01:38:06.890Z,69.68
2018-07-06T01:40:52.500Z,69.45
2018-07-06T01:43:37.939Z,69.97
2018-07-06T01:46:23.321Z,69.70
2018-07-06T01:49:08.956Z,69.32
2018-07-06T01:51:54.561Z,69.81
2018-07-06T01:54:40.325Z,70.20
2018-07-06T01:57:25.674Z,69.69
2018-07-06T02:00:05.152Z,69.67
2018-07-06T02:02:50.700Z,70.27
2018-07-06T02:05:36.206Z,70.53
2018-07-06T02:08:21.814Z,70.74
2018-07-06T02:11:07.362Z,71.31
2018-07-06T02:13:52.798Z,71.41
2018-07-06T02:16:38.484Z,71.48
2018-07-06T02:19:23.707Z,71.86
2018-07-06T02:22:09.199Z,71.01
2018-07-06T02:24:54.658Z,71.46
2018-07-06T02:27:40.055Z,70.97
2018-07-06T02:30:25.276Z,71.38
2018-07-06T02:33:10.728Z,70.83
2018-07-06T02:35:56.179Z,71.24
2018-07-06T02:38:41.529Z,71.39
2018-07-06T02:41:21.268Z,71.29
2018-07-06T02:44:00.883Z,70.76
2018-07-06T02:46:46.395Z,71.11
2018-07-06T02:49:26.068Z,71.44
2018-07-06T02:52:11.436Z,71.44
2018-07-06T02:54:56.957Z,71.33
2018-07-06T02:57:42.403Z,72.79
2018-07-06T03:00:27.724Z,72.34
2018-07-06T03:03:13.051Z,73.06
2018-07-06T03:05:58.492Z,72.44
2018-07-06T03:08:44.088Z,72.97
2018-07-06T03:11:29.538Z,72.14
2018-07-06T03:14:15.030Z,72.11
2018-07-06T03:17:00.405Z,72.25
2018-07-06T03:19:45.972Z,72.15
2018-07-06T03:22:31.509Z,72.55
2018-07-06T03:25:17.116Z,71.48
2018-07-06T03:28:02.817Z,72.46
2018-07-06T03:30:48.097Z,72.15
2018-07-06T03:33:33.459Z,71.80
2018-07-06T03:36:18.899Z,72.45
2018-07-06T03:38:58.658Z,72.32
2018-07-06T03:41:44.080Z,72.21
2018-07-06T03:44:29.647Z,71.47
2018-07-06T03:47:15.478Z,72.18
2018-07-06T03:50:01.146Z,71.64
2018-07-06T03:52:46.608Z,71.67
2018-07-06T03:55:31.977Z,71.46
2018-07-06T03:58:17.564Z,71.35
2018-07-06T04:01:03.279Z,71.93
2018-07-06T04:03:48.926Z,71.75
2018-07-06T04:06:34.545Z,73.08
2018-07-06T04:09:20.232Z,73.20
2018-07-06T04:12:05.861Z,73.48
2018-07-06T04:14:51.239Z,73.63
2018-07-06T04:17:36.987Z,74.11
2018-07-06T04:20:22.476Z,74.28
2018-07-06T04:23:02.428Z,73.73
2018-07-06T04:25:47.826Z,73.71
2018-07-06T04:28:33.276Z,74.08
2018-07-06T04:31:18.701Z,73.53
2018-07-06T04:34:04.249Z,73.78
2018-07-06T04:36:49.994Z,73.84
2018-07-06T04:39:35.691Z,72.76
2018-07-06T04:42:21.121Z,74.14
2018-07-06T04:45:06.517Z,74.45
2018-07-06T04:47:51.987Z,74.03
2018-07-06T04:50:37.432Z,75.23
2018-07-06T04:53:23.168Z,74.64
2018-07-06T04:56:08.835Z,75.08
2018-07-06T04:58:54.486Z,73.64
2018-07-06T05:01:40.245Z,74.09
2018-07-06T05:04:25.752Z,73.83
2018-07-06T05:07:05.408Z,74.08
2018-07-06T05:09:51.208Z,73.78
2018-07-06T05:12:36.550Z,73.53
2018-07-06T05:15:21.876Z,73.72
2018-07-06T05:18:07.204Z,74.08
2018-07-06T05:20:52.772Z,73.14
2018-07-06T05:23:38.324Z,71.52
2018-07-06T05:26:23.704Z,71.63
2018-07-06T05:29:09.092Z,70.75
2018-07-06T05:31:54.527Z,70.48
2018-07-06T05:34:40.605Z,70.63
2018-07-06T05:37:26.143Z,69.60
2018-07-06T05:40:11.584Z,69.96
2018-07-06T05:42:51.258Z,69.82
2018-07-06T05:45:36.672Z,68.28
2018-07-06T05:48:22.039Z,68.36
2018-07-06T05:51:07.337Z,67.36
2018-07-06T05:53:52.755Z,67.62
2018-07-06T05:56:38.765Z,68.92
2018-07-06T05:59:24.313Z,69.51
2018-07-06T06:02:09.866Z,69.70
2018-07-06T06:04:55.228Z,68.88
2018-07-06T06:07:24.708Z,69.04
2018-07-06T06:09:55.192Z,69.00
2018-07-06T06:12:30.556Z,68.19
2018-07-06T06:15:00.125Z,68.68
2018-07-06T06:17:28.802Z,68.42
2018-07-06T06:19:58.210Z,67.50
2018-07-06T06:22:28.106Z,67.83
2018-07-06T06:24:56.704Z,68.44
2018-07-06T06:27:25.208Z,67.93
2018-07-06T06:29:53.882Z,67.46
2018-07-06T06:32:23.820Z,68.44
2018-07-06T06:34:52.113Z,67.83
2018-07-06T06:37:20.749Z,68.32
2018-07-06T06:39:49.487Z,68.03
2018-07-06T06:42:18.139Z,68.40
2018-07-06T06:44:47.079Z,67.77
2018-07-06T06:47:15.897Z,67.07
2018-07-06T06:49:48.530Z,67.75
2018-07-06T06:52:17.419Z,66.46
2018-07-06T06:54:45.834Z,65.74
2018-07-06T06:57:14.703Z,66.01
2018-07-06T06:59:43.515Z,65.57
2018-07-06T07:02:12.250Z,65.41
2018-07-06T07:04:40.819Z,65.61
2018-07-06T07:07:09.358Z,63.81
2018-07-06T07:09:38.140Z,63.64
2018-07-06T07:12:06.594Z,64.04
2018-07-06T07:14:35.304Z,64.20
2018-07-06T07:17:04.157Z,64.69
2018-07-06T07:19:32.812Z,65.38
2018-07-06T07:22:03.304Z,63.89
2018-07-06T07:24:32.014Z,65.11
2018-07-06T07:27:01.315Z,65.19
2018-07-06T07:29:30.155Z,65.99
2018-07-06T07:31:59.668Z,65.97
2018-07-06T07:34:28.285Z,67.04
2018-07-06T07:36:57.228Z,66.73
2018-07-06T07:39:25.865Z,66.34
2018-07-06T07:41:54.804Z,65.67
2018-07-06T07:44:23.384Z,65.85
2018-07-06T07:46:51.920Z,65.58
2018-07-06T07:49:20.750Z,65.05
2018-07-06T07:52:07.665Z,64.84
2018-07-06T07:54:47.022Z,64.59
2018-07-06T07:57:16.157Z,63.96
2018-07-06T07:59:45.584Z,64.54
2018-07-06T08:02:15.369Z,62.79
2018-07-06T08:04:49.924Z,62.24
2018-07-06T08:07:19.820Z,63.17
2018-07-06T08:09:48.978Z,63.48
2018-07-06T08:12:21.153Z,63.68
2018-07-06T08:14:50.971Z,62.50
2018-07-06T08:17:19.645Z,62.51
2018-07-06T08:19:48.143Z,60.68
2018-07-06T08:22:17.485Z,60.74
2018-07-06T08:24:45.979Z,59.22
2018-07-06T08:27:18.290Z,58.98
2018-07-06T08:29:46.711Z,57.75
2018-07-06T08:32:18.708Z,57.75
2018-07-06T08:35:08.230Z,57.36
2018-07-06T08:38:07.061Z,56.84
2018-07-06T08:40:37.998Z,56.69
2018-07-06T08:43:06.857Z,58.23
2018-07-06T08:45:35.636Z,59.02
2018-07-06T08:48:04.260Z,58.96
2018-07-06T08:50:33.072Z,58.92
2018-07-06T08:53:06.522Z,58.95
2018-07-06T08:55:35.456Z,57.63
2018-07-06T08:58:04.153Z,56.89
2018-07-06T09:00:32.708Z,56.24
2018-07-06T09:03:01.465Z,55.64
2018-07-06T09:05:30.169Z,54.88
2018-07-06T09:07:58.704Z,54.25
2018-07-06T09:10:27.148Z,54.69
2018-07-06T09:12:55.895Z,53.84
2018-07-06T09:15:24.348Z,54.09
2018-07-06T09:17:54.177Z,54.04
2018-07-06T09:20:26.599Z,55.55
2018-07-06T09:22:55.478Z,55.88
2018-07-06T09:25:24.168Z,56.38
2018-07-06T09:27:52.663Z,55.57
2018-07-06T09:30:21.247Z,55.60
2018-07-06T09:32:49.999Z,56.21
2018-07-06T09:35:18.574Z,55.56
2018-07-06T09:37:46.825Z,55.48
2018-07-06T09:40:15.576Z,55.13
2018-07-06T09:42:44.299Z,54.59
2018-07-06T09:45:12.776Z,53.69
2018-07-06T09:47:41.172Z,52.57
2018-07-06T09:50:09.524Z,53.12
2018-07-06T09:52:37.873Z,52.73
2018-07-06T09:55:06.472Z,52.28
2018-07-06T09:57:34.883Z,52.29
2018-07-06T10:00:05.426Z,51.83
2018-07-06T10:02:33.718Z,51.84
2018-07-06T10:05:02.249Z,52.36
2018-07-06T10:07:30.636Z,52.34
2018-07-06T10:09:59.204Z,51.91
2018-07-06T10:12:27.905Z,50.68
2018-07-06T10:14:56.281Z,51.13
2018-07-06T10:17:24.860Z,51.50
2018-07-06T10:19:53.357Z,50.83
2018-07-06T10:22:22.020Z,51.35
2018-07-06T10:24:51.139Z,51.35
2018-07-06T10:27:20.081Z,52.50
2018-07-06T10:29:59.185Z,52.15
2018-07-06T10:32:28.649Z,51.43
2018-07-06T10:34:58.521Z,52.66
2018-07-06T10:37:27.911Z,52.93
2018-07-06T10:39:56.479Z,52.14
2018-07-06T10:42:24.941Z,51.48
2018-07-06T10:44:53.815Z,50.83
2018-07-06T10:47:22.406Z,50.71
2018-07-06T10:49:51.259Z,50.59
2018-07-06T10:52:19.751Z,50.69
2018-07-06T10:54:48.703Z,49.90
2018-07-06T10:57:17.490Z,48.76
2018-07-06T10:59:46.428Z,49.86
2018-07-06T11:02:14.989Z,49.69
2018-07-06T11:04:43.449Z,49.92
2018-07-06T11:07:12.012Z,48.20
2018-07-06T11:09:40.687Z,48.00
2018-07-06T11:12:09.440Z,47.62
2018-07-06T11:14:37.888Z,47.18
2018-07-06T11:17:06.455Z,47.00
2018-07-06T11:19:35.182Z,47.04
2018-07-06T11:22:03.523Z,48.27
2018-07-06T11:24:33.354Z,47.32
2018-07-06T11:27:02.006Z,47.42
2018-07-06T11:29:30.562Z,46.60
2018-07-06T11:31:59.143Z,47.27
2018-07-06T11:34:27.826Z,46.19
2018-07-06T11:36:56.366Z,46.39
2018-07-06T11:39:25.062Z,45.97
2018-07-06T11:41:53.556Z,45.32
2018-07-06T11:44:22.134Z,45.87
2018-07-06T11:46:51.070Z,46.77
2018-07-06T11:49:19.779Z,46.23
2018-07-06T11:51:48.465Z,45.98
2018-07-06T11:54:17.249Z,45.46
2018-07-06T11:56:45.818Z,45.46
2018-07-06T11:59:14.664Z,44.98
2018-07-06T12:01:43.429Z,45.13
2018-07-06T12:04:12.334Z,45.28
2018-07-06T12:06:41.021Z,45.45
2018-07-06T12:09:09.597Z,44.39
2018-07-06T12:11:38.170Z,44.76
2018-07-06T12:14:06.996Z,44.62
2018-07-06T12:16:35.901Z,45.53
2018-07-06T12:19:04.597Z,45.42
2018-07-06T12:21:35.503Z,44.08
2018-07-06T12:24:04.258Z,44.37
2018-07-06T12:26:36.695Z,43.75
2018-07-06T12:29:06.427Z,44.08
2018-07-06T12:31:41.793Z,44.17
2018-07-06T12:34:15.904Z,42.99
2018-07-06T12:36:47.001Z,42.32
2018-07-06T12:39:21.156Z,42.62
2018-07-06T12:41:53.333Z,42.63
2018-07-06T12:44:21.773Z,42.46
2018-07-06T12:46:50.385Z,42.58
2018-07-06T12:49:18.936Z,41.53
2018-07-06T12:51:47.492Z,41.94
2018-07-06T12:54:16.142Z,41.65
2018-07-06T12:56:44.655Z,43.25
2018-07-06T12:59:13.055Z,42.41
2018-07-06T13:01:41.720Z,43.19
2018-07-06T13:04:11.829Z,43.19
2018-07-06T13:06:40.811Z,42.49
2018-07-06T13:09:10.304Z,43.21
2018-07-06T13:11:39.333Z,42.99
2018-07-06T13:14:07.852Z,43.56
2018-07-06T13:16:36.568Z,43.37
2018-07-06T13:19:05.193Z,43.87
2018-07-06T13:21:35.779Z,45.60
2018-07-06T13:24:04.684Z,45.47
2018-07-06T13:26:34.126Z,45.33
2018-07-06T13:29:04.612Z,44.39
2018-07-06T13:31:33.190Z,44.56
2018-07-06T13:34:01.590Z,44.36
2018-07-06T13:36:30.156Z,43.10
2018-07-06T13:38:58.960Z,42.26
2018-07-06T13:41:27.892Z,40.25
2018-07-06T13:43:57.067Z,38.88
2018-07-06T13:46:25.667Z,38.92
2018-07-06T13:48:54.124Z,38.92
2018-07-06T13:51:22.753Z,38.01
2018-07-06T13:53:51.448Z,37.53
2018-07-06T13:56:19.964Z,39.18
2018-07-06T13:58:48.694Z,37.92
2018-07-06T14:01:17.176Z,38.36
2018-07-06T14:03:45.625Z,38.85
2018-07-06T14:06:14.199Z,38.59
2018-07-06T14:08:42.777Z,38.83
2018-07-06T14:11:11.369Z,38.41
2018-07-06T14:13:39.928Z,36.53
2018-07-06T14:16:08.583Z,35.79
2018-07-06T14:18:36.853Z,36.67
2018-07-06T14:21:05.875Z,36.53
2018-07-06T14:23:34.494Z,37.50
2018-07-06T14:26:04.303Z,38.87
2018-07-06T14:28:35.841Z,39.80
2018-07-06T14:31:05.907Z,40.88
2018-07-06T14:33:34.823Z,41.77
2018-07-06T14:36:03.287Z,40.80
2018-07-06T14:38:38.458Z,39.37
2018-07-06T14:41:07.360Z,38.31
2018-07-06T14:43:37.149Z,37.79
2018-07-06T14:46:06.253Z,38.24
2018-07-06T14:48:39.551Z,39.87
2018-07-06T14:51:08.632Z,40.30
2018-07-06T14:53:37.456Z,38.74
2018-07-06T14:56:05.927Z,40.00
2018-07-06T14:58:34.622Z,38.57
2018-07-06T15:01:04.164Z,38.69
2018-07-06T15:03:32.620Z,37.91
2018-07-06T15:06:04.274Z,37.60
2018-07-06T15:08:32.870Z,37.88
2018-07-06T15:11:01.841Z,39.37
2018-07-06T15:13:33.137Z,40.09
2018-07-06T15:16:01.683Z,40.09
2018-07-06T15:18:30.523Z,40.51
2018-07-06T15:20:58.855Z,39.33
2018-07-06T15:23:27.305Z,38.12
2018-07-06T15:25:55.894Z,37.96
2018-07-06T15:28:24.359Z,37.91
2018-07-06T15:30:53.073Z,39.75
2018-07-06T15:33:28.215Z,39.83
2018-07-06T15:35:56.916Z,39.97
2018-07-06T15:38:25.571Z,39.44
2018-07-06T15:40:54.282Z,40.41
2018-07-06T15:43:23.105Z,40.00
2018-07-06T15:45:51.620Z,40.05
2018-07-06T15:48:20.120Z,39.71
2018-07-06T15:50:48.745Z,39.57
2018-07-06T15:53:17.187Z,40.27
2018-07-06T15:55:45.778Z,39.76
2018-07-06T15:58:14.597Z,40.06
2018-07-06T16:00:43.089Z,39.28
2018-07-06T16:03:11.493Z,39.50
2018-07-06T16:05:39.883Z,39.00
2018-07-06T16:08:08.200Z,38.91
2018-07-06T16:10:36.673Z,40.02
2018-07-06T16:13:05.282Z,38.48
2018-07-06T16:15:33.908Z,38.78
2018-07-06T16:18:02.629Z,39.10
2018-07-06T16:20:31.161Z,39.40
2018-07-06T16:22:59.773Z,40.14
2018-07-06T16:25:28.323Z,40.52
2018-07-06T16:27:57.878Z,40.10
2018-07-06T16:30:26.706Z,39.48
2018-07-06T16:32:55.430Z,40.62
2018-07-06T16:35:23.903Z,40.42
2018-07-06T16:37:52.108Z,40.06
2018-07-06T16:40:20.929Z,40.31
2018-07-06T16:42:49.864Z,40.08
2018-07-06T16:45:18.202Z,39.59
2018-07-06T16:47:46.628Z,40.50
2018-07-06T16:50:15.069Z,40.00
2018-07-06T16:52:43.756Z,39.71
2018-07-06T16:55:12.713Z,40.23
2018-07-06T16:57:41.585Z,39.63
2018-07-06T17:00:10.250Z,40.63
2018-07-06T17:02:38.678Z,40.40
2018-07-06T17:05:07.373Z,39.49
2018-07-06T17:07:36.053Z,39.82
2018-07-06T17:10:04.605Z,40.10
2018-07-06T17:12:33.008Z,39.71
2018-07-06T17:15:01.657Z,40.52
2018-07-06T17:17:30.213Z,39.62
2018-07-06T17:19:58.721Z,40.89
2018-07-06T17:22:27.187Z,40.50
2018-07-06T17:24:55.873Z,41.30
2018-07-06T17:27:24.325Z,41.04
2018-07-06T17:29:52.931Z,41.09
2018-07-06T17:32:21.682Z,40.78
2018-07-06T17:34:50.679Z,40.78
2018-07-06T17:37:19.445Z,40.74
2018-07-06T17:39:47.866Z,39.41
2018-07-06T17:42:16.424Z,40.64
2018-07-06T17:44:44.950Z,40.53
2018-07-06T17:47:13.621Z,40.73
2018-07-06T17:49:42.169Z,40.44
2018-07-06T17:52:11.016Z,40.04
2018-07-06T17:54:39.904Z,39.97
2018-07-06T17:57:08.431Z,40.29
2018-07-06T17:59:37.000Z,40.74
2018-07-06T18:02:05.806Z,40.27
2018-07-06T18:04:34.486Z,41.21
2018-07-06T18:07:03.335Z,40.41
2018-07-06T18:09:32.016Z,41.21
2018-07-06T18:12:00.646Z,40.58
2018-07-06T18:14:29.365Z,40.41
2018-07-06T18:16:57.926Z,40.74
2018-07-06T18:19:26.618Z,40.77
2018-07-06T18:21:56.277Z,41.07
2018-07-06T18:24:25.193Z,40.90
2018-07-06T18:26:53.774Z,40.62
2018-07-06T18:29:22.200Z,40.78
2018-07-06T18:31:50.932Z,41.37
2018-07-06T18:34:19.483Z,41.17
2018-07-06T18:36:48.239Z,41.44
2018-07-06T18:39:16.921Z,41.34
2018-07-06T18:41:45.542Z,40.46
2018-07-06T18:44:14.018Z,41.47
2018-07-06T18:46:42.533Z,41.24
2018-07-06T18:49:11.113Z,41.86
2018-07-06T18:51:40.017Z,41.37
2018-07-06T18:54:08.893Z,40.64
2018-07-06T18:56:37.574Z,40.88
2018-07-06T18:59:06.498Z,41.18
2018-07-06T19:01:35.206Z,41.24
2018-07-06T19:04:03.737Z,41.54
2018-07-06T19:06:32.576Z,42.05
2018-07-06T19:09:01.236Z,42.40
2018-07-06T19:11:29.892Z,42.76
2018-07-06T19:13:58.492Z,42.03
2018-07-06T19:16:27.349Z,41.94
2018-07-06T19:18:56.265Z,41.72
2018-07-06T19:21:25.378Z,42.59
2018-07-06T19:23:54.343Z,42.43
2018-07-06T19:26:23.303Z,42.87
2018-07-06T19:28:52.066Z,42.94
2018-07-06T19:31:21.062Z,43.18
2018-07-06T19:33:49.934Z,43.12
2018-07-06T19:36:18.655Z,43.06
2018-07-06T19:38:47.742Z,42.22
2018-07-06T19:41:16.456Z,42.33
2018-07-06T19:43:45.228Z,42.41
2018-07-06T19:46:14.078Z,43.24
2018-07-06T19:48:42.940Z,42.08
2018-07-06T19:51:11.655Z,42.46
2018-07-06T19:53:40.253Z,43.11
2018-07-06T19:56:08.861Z,42.85
2018-07-06T19:58:37.497Z,42.34
2018-07-06T20:01:07.170Z,43.23
2018-07-06T20:03:36.137Z,43.29
2018-07-06T20:06:05.653Z,42.58
2018-07-06T20:08:34.375Z,42.30
2018-07-06T20:11:03.023Z,42.71
2018-07-06T20:13:31.402Z,43.45
2018-07-06T20:15:59.816Z,43.46
2018-07-06T20:18:28.277Z,43.80
2018-07-06T20:20:57.466Z,43.37
2018-07-06T20:23:26.063Z,43.20
2018-07-06T20:25:54.608Z,43.41
2018-07-06T20:28:23.148Z,44.55
2018-07-06T20:30:51.595Z,43.78
2018-07-06T20:33:20.491Z,44.61
2018-07-06T20:35:49.261Z,44.88
2018-07-06T20:38:17.715Z,45.38
2018-07-06T20:40:46.341Z,45.62
2018-07-06T20:43:15.074Z,45.41
2018-07-06T20:45:43.792Z,45.51
2018-07-06T20:48:12.383Z,46.06
2018-07-06T20:50:40.784Z,45.70
2018-07-06T20:53:09.276Z,45.80
2018-07-06T20:55:37.949Z,46.61
2018-07-06T20:58:06.493Z,45.91
2018-07-06T21:00:35.133Z,46.52
2018-07-06T21:03:03.813Z,46.03
2018-07-06T21:05:32.672Z,47.00
2018-07-06T21:08:01.564Z,46.18
2018-07-06T21:10:29.991Z,46.40
2018-07-06T21:12:58.457Z,47.04
2018-07-06T21:15:27.156Z,47.20
2018-07-06T21:17:55.828Z,46.47
2018-07-06T21:20:24.553Z,47.43
2018-07-06T21:22:53.116Z,46.63
2018-07-06T21:25:21.557Z,46.68
2018-07-06T21:27:50.028Z,47.01
2018-07-06T21:30:18.426Z,47.49
2018-07-06T21:32:46.731Z,46.92
2018-07-06T21:35:15.477Z,47.85
2018-07-06T21:37:43.955Z,47.54
2018-07-06T21:40:12.493Z,47.06
2018-07-06T21:42:41.172Z,47.97
2018-07-06T21:45:09.870Z,47.42
2018-07-06T21:47:38.555Z,47.75
2018-07-06T21:50:07.207Z,47.56
2018-07-06T21:52:35.820Z,48.02
2018-07-06T21:55:04.383Z,48.00
2018-07-06T21:57:33.444Z,48.17
2018-07-06T22:00:02.069Z,47.47
2018-07-06T22:02:30.597Z,48.46
2018-07-06T22:04:59.208Z,47.21
2018-07-06T22:07:27.836Z,47.33
2018-07-06T22:09:56.660Z,47.65
2018-07-06T22:12:25.588Z,48.07
2018-07-06T22:14:54.377Z,48.36
2018-07-06T22:17:22.882Z,48.27
2018-07-06T22:19:51.850Z,48.12
2018-07-06T22:22:20.299Z,48.25
2018-07-06T22:24:49.013Z,47.71
2018-07-06T22:27:17.511Z,48.79
2018-07-06T22:29:46.136Z,47.18
2018-07-06T22:32:15.773Z,47.74
2018-07-06T22:34:45.273Z,48.04
2018-07-06T22:37:13.965Z,48.34
2018-07-06T22:39:43.677Z,47.74
2018-07-06T22:42:12.246Z,47.40
2018-07-06T22:44:40.679Z,48.16
2018-07-06T22:47:09.485Z,47.35
2018-07-06T22:49:38.243Z,48.21
2018-07-06T22:52:07.068Z,48.09
2018-07-06T22:54:35.988Z,47.33
2018-07-06T22:57:04.511Z,47.15
2018-07-06T22:59:33.118Z,47.27
2018-07-06T23:02:01.803Z,46.61
2018-07-06T23:04:30.272Z,46.71
2018-07-06T23:06:58.817Z,46.69
2018-07-06T23:09:27.296Z,47.62
2018-07-06T23:11:56.080Z,47.53
2018-07-06T23:14:24.539Z,46.93
2018-07-06T23:16:53.032Z,47.11
2018-07-06T23:19:21.436Z,47.63
2018-07-06T23:21:49.953Z,47.25
2018-07-06T23:24:18.529Z,48.05
2018-07-06T23:26:47.049Z,47.28
2018-07-06T23:29:15.677Z,47.11
2018-07-06T23:31:43.972Z,47.71
2018-07-06T23:34:12.528Z,47.53
2018-07-06T23:36:41.006Z,47.82
2018-07-06T23:39:09.687Z,46.77
2018-07-06T23:41:38.202Z,47.55
2018-07-06T23:44:06.760Z,47.40
2018-07-06T23:46:35.314Z,46.96
2018-07-06T23:49:03.884Z,47.04
2018-07-06T23:51:32.280Z,47.90
2018-07-06T23:54:00.864Z,48.20
2018-07-06T23:56:29.537Z,47.23
2018-07-06T23:58:58.209Z,48.19
